createdAt,value
2022-09-21T00:00:33.072Z,1.95
2022-09-21T00:03:37.016Z,1.58
2022-09-21T00:06:39.865Z,1.75
2022-09-21T00:09:42.631Z,1.42
2022-09-21T00:12:45.296Z,1.70
2022-09-21T00:15:48.132Z,1.80
2022-09-21T00:18:50.703Z,1.77
2022-09-21T00:21:56.657Z,1.60
2022-09-21T00:24:59.277Z,1.60
2022-09-21T00:28:02.152Z,2.28
2022-09-21T00:31:07.079Z,1.33
2022-09-21T00:34:09.804Z,1.48
2022-09-21T00:37:12.535Z,1.58
2022-09-21T00:40:15.311Z,1.67
2022-09-21T00:43:18.611Z,1.58
2022-09-21T00:46:29.712Z,1.33
2022-09-21T00:49:34.328Z,2.12
2022-09-21T00:52:43.682Z,1.17
2022-09-21T00:55:55.114Z,1.10
2022-09-21T00:58:58.400Z,1.62
2022-09-21T01:02:01.481Z,1.40
2022-09-21T01:05:07.509Z,1.70
2022-09-21T01:08:13.100Z,2.03
2022-09-21T01:11:29.310Z,1.40
2022-09-21T01:14:56.039Z,1.70
2022-09-21T01:18:37.424Z,1.70
2022-09-21T01:21:57.393Z,1.50
2022-09-21T01:25:15.099Z,2.37
2022-09-21T01:28:26.546Z,1.90
2022-09-21T01:31:51.500Z,1.65
2022-09-21T01:35:01.811Z,1.80
2022-09-21T01:38:13.796Z,1.73
2022-09-21T01:41:20.989Z,1.75
2022-09-21T01:44:30.403Z,1.50
2022-09-21T01:47:36.076Z,2.03
2022-09-21T01:50:44.388Z,1.87
2022-09-21T01:53:56.815Z,2.20
2022-09-21T01:57:09.224Z,2.15
2022-09-21T02:00:12.442Z,1.33
2022-09-21T02:03:25.188Z,1.85
2022-09-21T02:06:30.152Z,1.85
2022-09-21T02:09:33.829Z,2.10
2022-09-21T02:12:37.103Z,1.33
2022-09-21T02:15:52.064Z,1.80
2022-09-21T02:19:22.732Z,1.70
2022-09-21T02:22:43.841Z,1.90
2022-09-21T02:26:13.331Z,1.80
2022-09-21T02:29:56.750Z,1.65
2022-09-21T02:33:11.873Z,1.80
2022-09-21T02:36:46.185Z,1.92
2022-09-21T02:39:59.653Z,1.55
2022-09-21T02:43:12.165Z,1.50
2022-09-21T02:46:33.191Z,1.42
2022-09-21T02:49:41.303Z,1.45
2022-09-21T02:52:44.593Z,1.67
2022-09-21T02:55:53.073Z,1.80
2022-09-21T02:59:04.332Z,1.70
2022-09-21T03:02:08.148Z,1.62
2022-09-21T03:05:13.062Z,1.77
2022-09-21T03:08:17.719Z,2.65
2022-09-21T03:11:20.744Z,2.28
2022-09-21T03:14:23.701Z,2.22
2022-09-21T03:17:27.815Z,1.90
2022-09-21T03:20:34.627Z,1.50
2022-09-21T03:23:37.127Z,1.92
2022-09-21T03:26:39.888Z,1.45
2022-09-21T03:29:42.549Z,1.35
2022-09-21T03:32:45.403Z,1.67
2022-09-21T03:35:48.998Z,1.83
2022-09-21T03:38:51.747Z,1.45
2022-09-21T03:41:57.027Z,1.75
2022-09-21T03:44:59.870Z,1.33
2022-09-21T03:48:02.350Z,1.67
2022-09-21T03:51:05.226Z,1.75
2022-09-21T03:54:07.830Z,2.30
2022-09-21T03:57:10.598Z,1.35
2022-09-21T04:00:14.070Z,2.05
2022-09-21T04:03:16.770Z,2.58
2022-09-21T04:06:19.250Z,1.48
2022-09-21T04:09:21.947Z,2.40
2022-09-21T04:12:24.813Z,2.40
2022-09-21T04:15:28.527Z,2.20
2022-09-21T04:18:32.391Z,2.78
2022-09-21T04:21:35.248Z,1.45
2022-09-21T04:24:39.492Z,1.60
2022-09-21T04:27:42.719Z,2.45
2022-09-21T04:30:45.445Z,1.77
2022-09-21T04:33:50.478Z,1.45
2022-09-21T04:36:54.733Z,1.80
2022-09-21T04:39:57.488Z,2.05
2022-09-21T04:43:00.107Z,1.42
2022-09-21T04:46:07.688Z,2.55
2022-09-21T04:49:10.840Z,2.05
2022-09-21T04:52:17.063Z,2.05
2022-09-21T04:55:21.527Z,2.42
2022-09-21T04:58:24.805Z,2.03
2022-09-21T05:01:27.985Z,2.33
2022-09-21T05:04:30.941Z,2.75
2022-09-21T05:07:33.492Z,1.95
2022-09-21T05:10:37.416Z,2.62
2022-09-21T05:13:40.647Z,2.40
2022-09-21T05:16:43.372Z,3.08
2022-09-21T05:19:45.825Z,2.08
2022-09-21T05:22:48.684Z,1.87
2022-09-21T05:25:51.493Z,2.58
2022-09-21T05:28:54.580Z,2.08
2022-09-21T05:32:08.173Z,2.33
2022-09-21T05:35:22.927Z,2.67
2022-09-21T05:38:26.179Z,1.92
2022-09-21T05:41:29.535Z,2.33
2022-09-21T05:44:32.356Z,2.50
2022-09-21T05:47:54.183Z,2.70
2022-09-21T05:51:43.207Z,2.28
2022-09-21T05:54:49.064Z,2.00
2022-09-21T05:58:13.569Z,2.15
2022-09-21T06:01:41.782Z,2.62
2022-09-21T06:04:45.303Z,2.22
2022-09-21T06:07:47.843Z,2.60
2022-09-21T06:10:51.054Z,2.50
2022-09-21T06:13:53.576Z,2.42
2022-09-21T06:16:56.455Z,2.55
2022-09-21T06:19:59.142Z,3.30
2022-09-21T06:23:03.183Z,2.75
2022-09-21T06:26:05.813Z,3.50
2022-09-21T06:29:08.660Z,2.83
2022-09-21T06:32:11.184Z,2.83
2022-09-21T06:35:14.225Z,2.47
2022-09-21T06:38:16.714Z,2.83
2022-09-21T06:41:21.391Z,3.03
2022-09-21T06:44:24.178Z,3.20
2022-09-21T06:47:27.012Z,3.22
2022-09-21T06:50:29.662Z,2.80
2022-09-21T06:53:34.307Z,3.37
2022-09-21T06:56:36.915Z,3.20
2022-09-21T06:59:39.717Z,2.72
2022-09-21T07:02:48.410Z,2.80
2022-09-21T07:05:51.378Z,2.78
2022-09-21T07:12:16.855Z,2.95
2022-09-21T07:15:20.516Z,2.55
2022-09-21T07:18:23.626Z,3.22
2022-09-21T07:21:26.505Z,2.40
2022-09-21T07:24:29.271Z,3.30
2022-09-21T07:27:33.276Z,3.58
2022-09-21T07:30:38.211Z,2.97
2022-09-21T07:33:41.978Z,2.20
2022-09-21T07:36:44.870Z,2.70
2022-09-21T07:39:47.532Z,2.50
2022-09-21T07:42:50.388Z,3.28
2022-09-21T07:45:56.265Z,2.37
2022-09-21T07:48:59.194Z,2.78
2022-09-21T07:52:05.621Z,3.58
2022-09-21T07:58:31.084Z,3.53
2022-09-21T08:01:41.918Z,2.60
2022-09-21T08:04:44.645Z,3.12
2022-09-21T08:07:47.176Z,3.25
2022-09-21T08:10:51.228Z,3.50
2022-09-21T08:13:56.173Z,3.22
2022-09-21T08:16:58.875Z,2.70
2022-09-21T08:20:01.870Z,2.80
2022-09-21T08:23:05.036Z,3.00
2022-09-21T08:26:09.212Z,2.80
2022-09-21T08:29:15.849Z,2.50
2022-09-21T08:32:33.333Z,2.58
2022-09-21T08:35:41.067Z,2.62
2022-09-21T08:38:43.618Z,2.78
2022-09-21T08:42:09.134Z,2.92
2022-09-21T08:45:16.961Z,2.70
2022-09-21T08:48:29.051Z,2.62
2022-09-21T08:51:38.480Z,2.22
2022-09-21T08:54:52.644Z,2.53
2022-09-21T08:57:55.266Z,2.65
2022-09-21T09:01:19.619Z,2.80
2022-09-21T09:04:49.809Z,2.80
2022-09-21T09:08:04.344Z,2.50
2022-09-21T09:11:40.438Z,2.83
2022-09-21T09:15:17.901Z,2.60
2022-09-21T09:18:23.431Z,2.37
2022-09-21T09:21:34.558Z,2.45
2022-09-21T09:24:42.726Z,2.45
2022-09-21T09:27:48.310Z,2.37
2022-09-21T09:31:22.167Z,2.00
2022-09-21T09:34:32.307Z,2.25
2022-09-21T09:37:42.781Z,2.40
2022-09-21T09:41:12.094Z,2.40
2022-09-21T09:44:35.821Z,2.70
2022-09-21T09:47:49.529Z,2.55
2022-09-21T09:50:52.628Z,2.15
2022-09-21T09:54:00.766Z,2.37
2022-09-21T09:57:04.622Z,2.50
2022-09-21T10:00:12.134Z,1.73
2022-09-21T10:03:19.572Z,2.17
2022-09-21T10:06:32.506Z,2.10
2022-09-21T10:09:35.600Z,2.17
2022-09-21T10:12:39.232Z,2.15
2022-09-21T10:15:54.843Z,1.92
2022-09-21T10:19:01.598Z,2.12
2022-09-21T10:22:05.090Z,1.90
2022-09-21T10:25:16.234Z,2.03
2022-09-21T10:28:21.033Z,1.80
2022-09-21T10:31:26.130Z,1.67
2022-09-21T10:34:33.795Z,2.10
2022-09-21T10:37:41.374Z,1.80
2022-09-21T10:40:46.259Z,1.20
2022-09-21T10:43:50.852Z,1.73
2022-09-21T10:50:20.562Z,1.30
2022-09-21T10:53:29.100Z,1.23
2022-09-21T10:56:31.930Z,1.20
2022-09-21T10:59:37.359Z,1.00
2022-09-21T11:02:43.072Z,1.33
2022-09-21T11:05:49.653Z,1.50
2022-09-21T11:08:55.579Z,1.40
2022-09-21T11:12:02.315Z,1.67
2022-09-21T11:15:54.569Z,1.55
2022-09-21T11:19:54.514Z,1.20
2022-09-21T11:23:40.444Z,1.50
2022-09-21T11:26:51.725Z,1.15
2022-09-21T11:30:14.944Z,0.90
2022-09-21T11:33:44.849Z,0.98
2022-09-21T11:36:57.345Z,1.20
2022-09-21T11:40:32.131Z,1.10
2022-09-21T11:44:00.599Z,0.80
2022-09-21T11:47:10.065Z,0.73
2022-09-21T11:50:42.253Z,1.00
2022-09-21T11:54:20.724Z,1.00
2022-09-21T11:57:33.840Z,0.80
2022-09-21T12:00:53.884Z,0.80
2022-09-21T12:04:15.556Z,0.70
2022-09-21T12:07:36.267Z,0.90
2022-09-21T12:11:06.295Z,0.60
2022-09-21T12:14:42.623Z,0.90
2022-09-21T12:17:53.109Z,0.80
2022-09-21T12:21:11.841Z,0.90
2022-09-21T12:24:32.004Z,0.82
2022-09-21T12:27:41.384Z,0.90
2022-09-21T12:30:48.427Z,1.15
2022-09-21T12:33:57.643Z,0.90
2022-09-21T12:37:12.444Z,1.00
2022-09-21T12:40:36.479Z,0.90
2022-09-21T12:43:56.596Z,0.68
2022-09-21T12:47:12.360Z,0.62
2022-09-21T12:50:26.135Z,0.73
2022-09-21T12:53:31.622Z,0.90
2022-09-21T12:56:49.959Z,0.77
2022-09-21T13:03:35.409Z,0.80
2022-09-21T13:07:15.907Z,0.95
2022-09-21T13:10:28.635Z,1.05
2022-09-21T13:13:36.621Z,1.25
2022-09-21T13:19:42.096Z,0.80
2022-09-21T13:22:46.017Z,1.02
2022-09-21T13:26:04.821Z,0.90
2022-09-21T13:29:19.809Z,1.08
2022-09-21T13:32:24.051Z,0.90
2022-09-21T13:36:04.351Z,0.88
2022-09-21T13:39:09.969Z,0.80
2022-09-21T13:42:34.798Z,0.77
2022-09-21T13:45:50.258Z,0.80
2022-09-21T13:48:54.184Z,0.82
2022-09-21T13:52:08.076Z,0.70
2022-09-21T13:55:33.844Z,0.80
2022-09-21T13:58:45.749Z,0.90
2022-09-21T14:01:49.868Z,0.77
2022-09-21T14:04:52.937Z,0.75
2022-09-21T14:08:07.539Z,0.70
2022-09-21T14:11:29.107Z,0.70
2022-09-21T14:14:33.271Z,0.80
2022-09-21T14:17:38.588Z,0.70
2022-09-21T14:21:01.249Z,0.70
2022-09-21T14:24:07.496Z,0.65
2022-09-21T14:27:18.698Z,0.80
2022-09-21T14:30:29.028Z,0.80
2022-09-21T14:33:54.991Z,1.20
2022-09-21T14:37:01.898Z,0.70
2022-09-21T14:40:17.869Z,0.70
2022-09-21T14:43:28.125Z,0.70
2022-09-21T14:46:40.489Z,0.80
2022-09-21T14:50:19.572Z,0.90
2022-09-21T14:53:59.576Z,0.90
2022-09-21T14:57:11.423Z,0.75
2022-09-21T15:00:26.673Z,0.70
2022-09-21T15:03:32.772Z,1.10
2022-09-21T15:07:06.592Z,0.80
2022-09-21T15:10:42.741Z,0.82
2022-09-21T15:14:13.724Z,0.70
2022-09-21T15:17:28.778Z,0.70
2022-09-21T15:20:32.321Z,1.20
2022-09-21T15:23:39.398Z,0.90
2022-09-21T15:26:43.732Z,0.80
2022-09-21T15:29:50.060Z,0.80
2022-09-21T15:32:58.920Z,1.00
2022-09-21T15:36:02.670Z,0.62
2022-09-21T15:39:06.467Z,0.70
2022-09-21T15:42:09.341Z,0.98
2022-09-21T15:45:18.127Z,0.90
2022-09-21T15:48:23.007Z,0.70
2022-09-21T15:51:31.917Z,0.80
2022-09-21T15:54:40.652Z,0.90
2022-09-21T15:57:43.990Z,1.17
2022-09-21T16:00:55.599Z,0.82
2022-09-21T16:04:06.008Z,0.88
2022-09-21T16:07:31.065Z,0.93
2022-09-21T16:10:36.451Z,0.90
2022-09-21T16:13:57.800Z,0.90
2022-09-21T16:17:09.653Z,0.77
2022-09-21T16:20:19.834Z,0.80
2022-09-21T16:23:26.722Z,1.20
2022-09-21T16:26:36.168Z,0.90
2022-09-21T16:29:43.004Z,1.25
2022-09-21T16:32:47.071Z,1.23
2022-09-21T16:35:50.598Z,1.30
2022-09-21T16:38:53.679Z,1.20
2022-09-21T16:42:01.119Z,1.58
2022-09-21T16:45:16.690Z,1.20
2022-09-21T16:48:19.690Z,1.40
2022-09-21T16:51:25.615Z,1.40
2022-09-21T16:54:29.086Z,1.75
2022-09-21T16:57:32.636Z,1.50
2022-09-21T17:00:40.606Z,1.02
2022-09-21T17:03:43.141Z,0.93
2022-09-21T17:06:45.922Z,1.50
2022-09-21T17:09:48.427Z,1.08
2022-09-21T17:12:53.738Z,1.10
2022-09-21T17:15:56.235Z,1.05
2022-09-21T17:18:59.042Z,1.55
2022-09-21T17:22:05.418Z,1.23
2022-09-21T17:25:08.787Z,1.05
2022-09-21T17:28:17.599Z,0.93
2022-09-21T17:31:23.947Z,0.70
2022-09-21T17:34:29.200Z,0.95
2022-09-21T17:37:33.820Z,1.02
2022-09-21T17:40:36.894Z,0.98
2022-09-21T17:43:50.159Z,0.90
2022-09-21T17:46:52.556Z,0.95
2022-09-21T17:50:02.652Z,1.45
2022-09-21T17:53:24.207Z,1.10
2022-09-21T17:56:40.120Z,1.25
2022-09-21T17:59:48.681Z,1.70
2022-09-21T18:02:53.813Z,1.75
2022-09-21T18:06:01.111Z,0.85
2022-09-21T18:09:03.924Z,0.80
2022-09-21T18:12:28.310Z,1.25
2022-09-21T18:15:50.098Z,1.23
2022-09-21T18:19:50.085Z,0.93
2022-09-21T18:23:33.940Z,1.35
2022-09-21T18:26:38.160Z,0.93
2022-09-21T18:29:41.774Z,1.17
2022-09-21T18:32:53.739Z,1.40
2022-09-21T18:36:03.393Z,1.42
2022-09-21T18:39:21.316Z,1.10
2022-09-21T18:42:45.812Z,1.12
2022-09-21T18:46:07.027Z,1.02
2022-09-21T18:49:23.838Z,1.05
2022-09-21T18:52:33.946Z,1.10
2022-09-21T18:55:37.313Z,0.98
2022-09-21T18:58:42.741Z,0.88
2022-09-21T19:01:47.063Z,1.02
2022-09-21T19:04:50.569Z,0.93
2022-09-21T19:08:09.285Z,0.93
2022-09-21T19:11:22.812Z,0.85
2022-09-21T19:14:30.580Z,0.70
2022-09-21T19:17:58.002Z,1.17
2022-09-21T19:21:14.659Z,1.42
2022-09-21T19:24:57.015Z,1.27
2022-09-21T19:28:06.296Z,1.00
2022-09-21T19:31:15.608Z,1.48
2022-09-21T19:34:19.632Z,1.27
2022-09-21T19:37:22.493Z,1.65
2022-09-21T19:40:30.605Z,1.27
2022-09-21T19:44:05.728Z,1.20
2022-09-21T19:47:11.120Z,1.15
2022-09-21T19:50:36.229Z,1.10
2022-09-21T19:53:59.835Z,1.05
2022-09-21T19:57:31.386Z,1.02
2022-09-21T20:00:34.190Z,1.35
2022-09-21T20:03:44.702Z,1.15
2022-09-21T20:06:55.208Z,1.12
2022-09-21T20:10:12.318Z,1.62
2022-09-21T20:13:21.774Z,1.42
2022-09-21T20:16:32.837Z,1.02
2022-09-21T20:19:47.599Z,1.10
2022-09-21T20:22:51.292Z,1.17
2022-09-21T20:26:03.418Z,1.27
2022-09-21T20:29:06.464Z,1.37
2022-09-21T20:32:09.163Z,0.90
2022-09-21T20:35:22.771Z,0.88
2022-09-21T20:38:25.404Z,1.08
2022-09-21T20:41:28.192Z,1.12
2022-09-21T20:44:31.016Z,1.30
2022-09-21T20:47:34.061Z,0.82
2022-09-21T20:50:36.843Z,1.17
2022-09-21T20:53:40.515Z,0.90
2022-09-21T20:56:43.521Z,1.00
2022-09-21T20:59:46.643Z,1.23
2022-09-21T21:02:49.215Z,1.40
2022-09-21T21:05:51.965Z,1.27
2022-09-21T21:08:54.402Z,1.62
2022-09-21T21:11:57.253Z,1.87
2022-09-21T21:14:59.705Z,1.20
2022-09-21T21:18:02.473Z,1.40
2022-09-21T21:21:04.959Z,0.98
2022-09-21T21:24:26.453Z,0.93
2022-09-21T21:27:29.085Z,1.50
2022-09-21T21:30:31.864Z,1.52
2022-09-21T21:33:34.755Z,1.23
2022-09-21T21:36:37.453Z,1.15
2022-09-21T21:39:40.245Z,1.02
2022-09-21T21:42:43.029Z,1.15
2022-09-21T21:45:52.491Z,1.70
2022-09-21T21:48:55.639Z,1.08
2022-09-21T21:51:58.597Z,0.95
2022-09-21T21:55:02.455Z,1.00
2022-09-21T21:58:05.084Z,1.20
2022-09-21T22:01:08.823Z,1.55
2022-09-21T22:33:34.435Z,1.20
2022-09-21T22:39:46.092Z,1.10
2022-09-21T22:42:48.809Z,0.98
2022-09-21T22:45:54.159Z,1.17
2022-09-21T22:48:57.623Z,1.45
2022-09-21T22:52:00.127Z,1.37
2022-09-21T22:55:03.082Z,1.23
2022-09-21T22:58:05.639Z,1.20
2022-09-21T23:01:11.503Z,1.90
2022-09-21T23:04:14.159Z,1.58
2022-09-21T23:07:17.128Z,1.30
2022-09-21T23:10:21.720Z,1.27
2022-09-21T23:13:24.687Z,1.58
2022-09-21T23:16:28.966Z,1.37
2022-09-21T23:19:32.026Z,1.67
2022-09-21T23:22:34.567Z,1.83
2022-09-21T23:25:39.137Z,1.65
2022-09-21T23:28:43.819Z,0.90
2022-09-21T23:31:46.683Z,1.45
2022-09-21T23:34:49.334Z,1.67
2022-09-21T23:37:52.280Z,1.55
2022-09-21T23:41:04.347Z,1.65
2022-09-21T23:44:07.138Z,1.80
2022-09-21T23:47:09.747Z,1.08
2022-09-21T23:50:12.558Z,1.23
2022-09-21T23:53:15.024Z,1.50
2022-09-21T23:56:20.732Z,1.65
2022-09-21T23:59:23.594Z,1.45
